sensor_id;sensor_type;location;lat;lon;timestamp;pressure;altitude;pressure_sealevel;temperature;humidity
44441;BME280;30146;52.268;20.944;2022-09-20T00:01:18;99843.60;;;10.48;74.17
44441;BME280;30146;52.268;20.944;2022-09-20T00:03:51;99850.27;;;10.46;74.10
44441;BME280;30146;52.268;20.944;2022-09-20T00:06:25;99847.05;;;10.45;74.17
44441;BME280;30146;52.268;20.944;2022-09-20T00:08:57;99847.92;;;10.44;74.22
44441;BME280;30146;52.268;20.944;2022-09-20T00:11:31;99846.73;;;10.44;74.18
44441;BME280;30146;52.268;20.944;2022-09-20T00:14:05;99850.50;;;10.43;74.41
44441;BME280;30146;52.268;20.944;2022-09-20T00:16:39;99856.30;;;10.43;74.20
44441;BME280;30146;52.268;20.944;2022-09-20T00:19:18;99858.19;;;10.43;74.28
44441;BME280;30146;52.268;20.944;2022-09-20T00:21:49;99852.53;;;10.44;74.52
44441;BME280;30146;52.268;20.944;2022-09-20T00:24:20;99857.65;;;10.45;74.47
44441;BME280;30146;52.268;20.944;2022-09-20T00:26:52;99854.52;;;10.47;74.53
44441;BME280;30146;52.268;20.944;2022-09-20T00:29:23;99859.97;;;10.50;74.45
44441;BME280;30146;52.268;20.944;2022-09-20T00:31:55;99860.27;;;10.51;74.72
44441;BME280;30146;52.268;20.944;2022-09-20T00:34:26;99859.39;;;10.53;74.37
44441;BME280;30146;52.268;20.944;2022-09-20T00:37:15;99858.88;;;10.53;74.45
44441;BME280;30146;52.268;20.944;2022-09-20T00:39:46;99860.73;;;10.54;74.47
44441;BME280;30146;52.268;20.944;2022-09-20T00:42:17;99861.40;;;10.55;74.50
44441;BME280;30146;52.268;20.944;2022-09-20T00:44:55;99863.45;;;10.55;74.41
44441;BME280;30146;52.268;20.944;2022-09-20T00:47:32;99864.81;;;10.55;74.30
44441;BME280;30146;52.268;20.944;2022-09-20T00:50:11;99863.30;;;10.54;74.37
44441;BME280;30146;52.268;20.944;2022-09-20T00:52:47;99860.58;;;10.53;74.20
44441;BME280;30146;52.268;20.944;2022-09-20T00:55:22;99858.24;;;10.50;74.18
44441;BME280;30146;52.268;20.944;2022-09-20T00:57:54;99859.45;;;10.49;73.88
44441;BME280;30146;52.268;20.944;2022-09-20T01:00:26;99855.73;;;10.46;74.12
44441;BME280;30146;52.268;20.944;2022-09-20T01:03:39;99862.92;;;10.46;74.20
44441;BME280;30146;52.268;20.944;2022-09-20T01:06:14;99862.26;;;10.45;74.17
44441;BME280;30146;52.268;20.944;2022-09-20T01:09:08;99861.25;;;10.43;74.10
44441;BME280;30146;52.268;20.944;2022-09-20T01:12:02;99858.90;;;10.41;73.97
44441;BME280;30146;52.268;20.944;2022-09-20T01:14:38;99857.58;;;10.38;73.97
44441;BME280;30146;52.268;20.944;2022-09-20T01:17:12;99858.48;;;10.36;74.07
44441;BME280;30146;52.268;20.944;2022-09-20T01:19:51;99860.73;;;10.34;74.01
44441;BME280;30146;52.268;20.944;2022-09-20T01:23:05;99861.77;;;10.33;73.81
44441;BME280;30146;52.268;20.944;2022-09-20T01:29:15;99867.82;;;10.26;73.86
44441;BME280;30146;52.268;20.944;2022-09-20T01:31:54;99868.40;;;10.22;74.03
44441;BME280;30146;52.268;20.944;2022-09-20T01:34:30;99874.23;;;10.20;74.02
44441;BME280;30146;52.268;20.944;2022-09-20T01:37:08;99870.34;;;10.17;74.03
44441;BME280;30146;52.268;20.944;2022-09-20T01:39:48;99873.27;;;10.17;74.07
44441;BME280;30146;52.268;20.944;2022-09-20T01:42:50;99874.98;;;10.16;74.06
44441;BME280;30146;52.268;20.944;2022-09-20T01:45:33;99878.93;;;10.15;74.31
44441;BME280;30146;52.268;20.944;2022-09-20T01:48:17;99875.53;;;10.14;74.19
44441;BME280;30146;52.268;20.944;2022-09-20T01:54:50;99872.71;;;10.09;74.25
44441;BME280;30146;52.268;20.944;2022-09-20T02:01:05;99881.33;;;10.02;74.18
44441;BME280;30146;52.268;20.944;2022-09-20T02:03:58;99881.35;;;10.01;74.20
44441;BME280;30146;52.268;20.944;2022-09-20T02:06:43;99877.96;;;9.99;74.35
44441;BME280;30146;52.268;20.944;2022-09-20T02:09:52;99877.98;;;9.98;74.22
44441;BME280;30146;52.268;20.944;2022-09-20T02:12:59;99882.93;;;9.98;74.44
44441;BME280;30146;52.268;20.944;2022-09-20T02:16:02;99884.29;;;9.98;74.36
44441;BME280;30146;52.268;20.944;2022-09-20T02:19:10;99885.31;;;9.99;74.48
44441;BME280;30146;52.268;20.944;2022-09-20T02:21:51;99886.65;;;10.01;74.58
44441;BME280;30146;52.268;20.944;2022-09-20T02:24:33;99887.34;;;10.02;74.50
44441;BME280;30146;52.268;20.944;2022-09-20T02:27:16;99885.07;;;10.03;74.56
44441;BME280;30146;52.268;20.944;2022-09-20T02:30:08;99888.66;;;10.04;74.56
44441;BME280;30146;52.268;20.944;2022-09-20T02:33:05;99887.46;;;10.04;74.59
44441;BME280;30146;52.268;20.944;2022-09-20T02:35:54;99888.32;;;10.03;74.58
44441;BME280;30146;52.268;20.944;2022-09-20T02:38:44;99888.66;;;10.04;74.58
44441;BME280;30146;52.268;20.944;2022-09-20T02:41:59;99889.85;;;10.04;74.47
44441;BME280;30146;52.268;20.944;2022-09-20T02:44:54;99898.22;;;10.04;74.48
44441;BME280;30146;52.268;20.944;2022-09-20T02:47:48;99894.12;;;10.04;74.44
44441;BME280;30146;52.268;20.944;2022-09-20T02:50:37;99893.25;;;10.05;74.61
44441;BME280;30146;52.268;20.944;2022-09-20T02:53:22;99895.30;;;10.06;74.43
44441;BME280;30146;52.268;20.944;2022-09-20T02:56:03;99893.73;;;10.07;74.67
44441;BME280;30146;52.268;20.944;2022-09-20T02:58:47;99891.50;;;10.08;74.81
44441;BME280;30146;52.268;20.944;2022-09-20T03:01:46;99893.89;;;10.09;74.46
44441;BME280;30146;52.268;20.944;2022-09-20T03:04:38;99894.73;;;10.10;74.69
44441;BME280;30146;52.268;20.944;2022-09-20T03:07:21;99894.03;;;10.10;74.72
44441;BME280;30146;52.268;20.944;2022-09-20T03:10:12;99899.15;;;10.10;74.55
44441;BME280;30146;52.268;20.944;2022-09-20T03:12:59;99901.20;;;10.10;74.68
44441;BME280;30146;52.268;20.944;2022-09-20T03:15:44;99906.67;;;10.10;74.61
44441;BME280;30146;52.268;20.944;2022-09-20T03:18:18;99908.70;;;10.11;74.74
44441;BME280;30146;52.268;20.944;2022-09-20T03:21:05;99911.10;;;10.11;74.64
44441;BME280;30146;52.268;20.944;2022-09-20T03:23:52;99918.10;;;10.11;74.66
44441;BME280;30146;52.268;20.944;2022-09-20T03:26:54;99916.70;;;10.13;74.71
44441;BME280;30146;52.268;20.944;2022-09-20T03:29:56;99911.20;;;10.15;74.86
44441;BME280;30146;52.268;20.944;2022-09-20T03:32:44;99909.66;;;10.16;74.74
44441;BME280;30146;52.268;20.944;2022-09-20T03:35:32;99904.17;;;10.17;74.71
44441;BME280;30146;52.268;20.944;2022-09-20T03:38:32;99914.59;;;10.18;74.65
44441;BME280;30146;52.268;20.944;2022-09-20T03:41:26;99915.94;;;10.18;74.67
44441;BME280;30146;52.268;20.944;2022-09-20T03:44:13;99919.34;;;10.19;74.81
44441;BME280;30146;52.268;20.944;2022-09-20T03:46:45;99921.53;;;10.21;74.80
44441;BME280;30146;52.268;20.944;2022-09-20T03:49:59;99919.81;;;10.22;74.78
44441;BME280;30146;52.268;20.944;2022-09-20T03:52:56;99922.69;;;10.24;74.81
44441;BME280;30146;52.268;20.944;2022-09-20T03:55:54;99920.48;;;10.24;74.73
44441;BME280;30146;52.268;20.944;2022-09-20T03:58:43;99920.98;;;10.25;74.65
44441;BME280;30146;52.268;20.944;2022-09-20T04:01:37;99923.54;;;10.25;74.82
44441;BME280;30146;52.268;20.944;2022-09-20T04:04:31;99921.14;;;10.25;74.76
44441;BME280;30146;52.268;20.944;2022-09-20T04:07:18;99922.66;;;10.26;74.60
44441;BME280;30146;52.268;20.944;2022-09-20T04:10:02;99925.73;;;10.26;74.36
44441;BME280;30146;52.268;20.944;2022-09-20T04:12:44;99928.30;;;10.26;74.63
44441;BME280;30146;52.268;20.944;2022-09-20T04:15:45;99934.95;;;10.27;74.65
44441;BME280;30146;52.268;20.944;2022-09-20T04:18:27;99937.16;;;10.28;74.67
44441;BME280;30146;52.268;20.944;2022-09-20T04:21:25;99942.42;;;10.29;74.64
44441;BME280;30146;52.268;20.944;2022-09-20T04:24:17;99947.90;;;10.30;74.67
44441;BME280;30146;52.268;20.944;2022-09-20T04:26:55;99951.65;;;10.30;74.47
44441;BME280;30146;52.268;20.944;2022-09-20T04:29:55;99947.73;;;10.31;74.42
44441;BME280;30146;52.268;20.944;2022-09-20T04:32:34;99947.90;;;10.31;74.49
44441;BME280;30146;52.268;20.944;2022-09-20T04:35:15;99949.25;;;10.32;74.42
44441;BME280;30146;52.268;20.944;2022-09-20T04:39:04;99950.09;;;10.33;74.38
44441;BME280;30146;52.268;20.944;2022-09-20T04:45:49;99962.67;;;10.36;74.64
44441;BME280;30146;52.268;20.944;2022-09-20T04:52:32;99974.09;;;10.39;74.54
44441;BME280;30146;52.268;20.944;2022-09-20T04:55:45;99972.73;;;10.39;74.50
44441;BME280;30146;52.268;20.944;2022-09-20T04:58:46;99975.28;;;10.40;74.30
44441;BME280;30146;52.268;20.944;2022-09-20T05:05:16;99982.95;;;10.42;74.23
44441;BME280;30146;52.268;20.944;2022-09-20T05:08:41;99984.27;;;10.44;74.29
44441;BME280;30146;52.268;20.944;2022-09-20T05:11:37;99992.41;;;10.49;74.33
44441;BME280;30146;52.268;20.944;2022-09-20T05:18:14;100004.96;;;10.54;74.26
44441;BME280;30146;52.268;20.944;2022-09-20T05:21:11;100003.38;;;10.59;74.14
44441;BME280;30146;52.268;20.944;2022-09-20T05:24:29;100015.60;;;10.64;74.32
44441;BME280;30146;52.268;20.944;2022-09-20T05:27:22;100018.94;;;10.69;74.38
44441;BME280;30146;52.268;20.944;2022-09-20T05:30:15;100018.88;;;10.73;74.21
44441;BME280;30146;52.268;20.944;2022-09-20T05:33:23;100016.23;;;10.79;74.29
44441;BME280;30146;52.268;20.944;2022-09-20T05:36:05;100011.34;;;10.85;74.27
44441;BME280;30146;52.268;20.944;2022-09-20T05:39:09;100018.24;;;10.92;74.23
44441;BME280;30146;52.268;20.944;2022-09-20T05:42:16;100014.75;;;10.96;74.30
44441;BME280;30146;52.268;20.944;2022-09-20T05:44:59;100024.94;;;11.01;74.13
44441;BME280;30146;52.268;20.944;2022-09-20T05:47:43;100027.45;;;11.04;73.96
44441;BME280;30146;52.268;20.944;2022-09-20T05:50:32;100028.96;;;11.06;73.93
44441;BME280;30146;52.268;20.944;2022-09-20T05:53:30;100033.36;;;11.09;73.87
44441;BME280;30146;52.268;20.944;2022-09-20T05:56:14;100034.48;;;11.14;74.08
44441;BME280;30146;52.268;20.944;2022-09-20T05:58:59;100031.83;;;11.18;73.90
44441;BME280;30146;52.268;20.944;2022-09-20T06:01:37;100031.95;;;11.21;74.04
44441;BME280;30146;52.268;20.944;2022-09-20T06:04:16;100038.59;;;11.24;73.68
44441;BME280;30146;52.268;20.944;2022-09-20T06:07:00;100034.44;;;11.26;73.63
44441;BME280;30146;52.268;20.944;2022-09-20T06:09:50;100034.73;;;11.29;73.58
44441;BME280;30146;52.268;20.944;2022-09-20T06:12:40;100040.00;;;11.31;73.44
44441;BME280;30146;52.268;20.944;2022-09-20T06:15:25;100041.69;;;11.33;73.37
44441;BME280;30146;52.268;20.944;2022-09-20T06:18:06;100041.48;;;11.34;73.28
44441;BME280;30146;52.268;20.944;2022-09-20T06:20:47;100045.91;;;11.36;73.52
44441;BME280;30146;52.268;20.944;2022-09-20T06:23:22;100050.14;;;11.39;73.28
44441;BME280;30146;52.268;20.944;2022-09-20T06:26:00;100049.41;;;11.41;73.31
44441;BME280;30146;52.268;20.944;2022-09-20T06:28:39;100053.10;;;11.45;73.35
44441;BME280;30146;52.268;20.944;2022-09-20T06:31:13;100061.27;;;11.48;73.34
44441;BME280;30146;52.268;20.944;2022-09-20T06:33:50;100060.72;;;11.50;73.11
44441;BME280;30146;52.268;20.944;2022-09-20T06:36:26;100058.47;;;11.51;73.17
44441;BME280;30146;52.268;20.944;2022-09-20T06:39:30;100065.11;;;11.54;73.14
44441;BME280;30146;52.268;20.944;2022-09-20T06:42:38;100070.05;;;11.55;73.02
44441;BME280;30146;52.268;20.944;2022-09-20T06:45:13;100075.50;;;11.56;72.63
44441;BME280;30146;52.268;20.944;2022-09-20T06:47:44;100077.89;;;11.58;72.72
44441;BME280;30146;52.268;20.944;2022-09-20T06:50:16;100077.64;;;11.61;72.73
44441;BME280;30146;52.268;20.944;2022-09-20T06:52:48;100077.59;;;11.64;72.83
44441;BME280;30146;52.268;20.944;2022-09-20T06:55:24;100082.79;;;11.70;72.94
44441;BME280;30146;52.268;20.944;2022-09-20T06:57:57;100086.13;;;11.74;72.76
44441;BME280;30146;52.268;20.944;2022-09-20T07:00:31;100085.23;;;11.77;72.72
44441;BME280;30146;52.268;20.944;2022-09-20T07:03:06;100087.07;;;11.80;72.75
44441;BME280;30146;52.268;20.944;2022-09-20T07:05:37;100090.27;;;11.82;72.63
44441;BME280;30146;52.268;20.944;2022-09-20T07:08:10;100090.38;;;11.86;72.75
44441;BME280;30146;52.268;20.944;2022-09-20T07:10:41;100092.42;;;11.86;72.50
44441;BME280;30146;52.268;20.944;2022-09-20T07:13:12;100092.05;;;11.88;72.43
44441;BME280;30146;52.268;20.944;2022-09-20T07:15:43;100093.05;;;11.91;72.50
44441;BME280;30146;52.268;20.944;2022-09-20T07:18:20;100091.25;;;11.95;72.49
44441;BME280;30146;52.268;20.944;2022-09-20T07:20:52;100096.50;;;11.99;72.51
44441;BME280;30146;52.268;20.944;2022-09-20T07:23:25;100099.17;;;12.02;72.45
44441;BME280;30146;52.268;20.944;2022-09-20T07:26:00;100104.09;;;12.05;72.45
44441;BME280;30146;52.268;20.944;2022-09-20T07:28:34;100111.05;;;12.08;72.41
44441;BME280;30146;52.268;20.944;2022-09-20T07:31:05;100108.95;;;12.11;72.45
44441;BME280;30146;52.268;20.944;2022-09-20T07:33:36;100113.54;;;12.13;72.28
44441;BME280;30146;52.268;20.944;2022-09-20T07:36:08;100118.27;;;12.16;72.29
44441;BME280;30146;52.268;20.944;2022-09-20T07:38:47;100119.08;;;12.18;72.18
44441;BME280;30146;52.268;20.944;2022-09-20T07:41:19;100123.48;;;12.22;72.08
44441;BME280;30146;52.268;20.944;2022-09-20T07:43:51;100125.11;;;12.25;72.23
44441;BME280;30146;52.268;20.944;2022-09-20T07:46:22;100126.92;;;12.29;72.25
44441;BME280;30146;52.268;20.944;2022-09-20T07:48:55;100128.70;;;12.35;72.33
44441;BME280;30146;52.268;20.944;2022-09-20T07:51:26;100128.20;;;12.42;72.34
44441;BME280;30146;52.268;20.944;2022-09-20T07:53:57;100130.28;;;12.49;72.23
44441;BME280;30146;52.268;20.944;2022-09-20T07:56:29;100132.14;;;12.58;72.25
44441;BME280;30146;52.268;20.944;2022-09-20T07:58:59;100134.27;;;12.71;72.30
44441;BME280;30146;52.268;20.944;2022-09-20T08:01:30;100138.63;;;12.84;72.35
44441;BME280;30146;52.268;20.944;2022-09-20T08:04:05;100142.27;;;12.98;72.38
44441;BME280;30146;52.268;20.944;2022-09-20T08:06:39;100145.41;;;13.10;72.29
44441;BME280;30146;52.268;20.944;2022-09-20T08:09:11;100147.30;;;13.18;72.01
44441;BME280;30146;52.268;20.944;2022-09-20T08:11:42;100144.87;;;13.26;71.96
44441;BME280;30146;52.268;20.944;2022-09-20T08:14:17;100147.75;;;13.36;71.88
44441;BME280;30146;52.268;20.944;2022-09-20T08:16:49;100148.05;;;13.45;71.70
44441;BME280;30146;52.268;20.944;2022-09-20T08:19:22;100150.44;;;13.53;71.59
44441;BME280;30146;52.268;20.944;2022-09-20T08:21:53;100150.21;;;13.62;71.62
44441;BME280;30146;52.268;20.944;2022-09-20T08:24:25;100151.80;;;13.68;71.36
44441;BME280;30146;52.268;20.944;2022-09-20T08:26:56;100151.17;;;13.72;71.08
44441;BME280;30146;52.268;20.944;2022-09-20T08:29:27;100153.02;;;13.74;70.99
44441;BME280;30146;52.268;20.944;2022-09-20T08:31:58;100155.48;;;13.78;70.83
44441;BME280;30146;52.268;20.944;2022-09-20T08:34:30;100156.39;;;13.83;70.72
44441;BME280;30146;52.268;20.944;2022-09-20T08:37:01;100157.38;;;13.84;70.44
44441;BME280;30146;52.268;20.944;2022-09-20T08:39:33;100157.14;;;13.87;70.34
44441;BME280;30146;52.268;20.944;2022-09-20T08:42:29;100161.98;;;13.86;70.23
44441;BME280;30146;52.268;20.944;2022-09-20T08:45:14;100159.11;;;13.84;70.16
44441;BME280;30146;52.268;20.944;2022-09-20T08:48:08;100160.41;;;13.80;69.87
44441;BME280;30146;52.268;20.944;2022-09-20T08:50:42;100161.67;;;13.78;70.01
44441;BME280;30146;52.268;20.944;2022-09-20T08:53:14;100160.14;;;13.77;70.06
44441;BME280;30146;52.268;20.944;2022-09-20T08:55:50;100160.84;;;13.77;69.95
44441;BME280;30146;52.268;20.944;2022-09-20T08:58:21;100163.79;;;13.76;69.97
44441;BME280;30146;52.268;20.944;2022-09-20T09:00:52;100166.72;;;13.76;70.02
44441;BME280;30146;52.268;20.944;2022-09-20T09:03:24;100170.45;;;13.77;70.03
44441;BME280;30146;52.268;20.944;2022-09-20T09:05:56;100169.41;;;13.78;70.12
44441;BME280;30146;52.268;20.944;2022-09-20T09:08:32;100169.58;;;13.78;70.09
44441;BME280;30146;52.268;20.944;2022-09-20T09:11:11;100171.82;;;13.77;70.02
44441;BME280;30146;52.268;20.944;2022-09-20T09:13:49;100171.99;;;13.77;70.07
44441;BME280;30146;52.268;20.944;2022-09-20T09:16:24;100176.11;;;13.77;70.10
44441;BME280;30146;52.268;20.944;2022-09-20T09:19:27;100174.04;;;13.78;70.04
44441;BME280;30146;52.268;20.944;2022-09-20T09:22:05;100178.30;;;13.79;69.97
44441;BME280;30146;52.268;20.944;2022-09-20T09:24:38;100182.39;;;13.81;70.09
44441;BME280;30146;52.268;20.944;2022-09-20T09:27:15;100185.48;;;13.81;70.07
44441;BME280;30146;52.268;20.944;2022-09-20T09:29:51;100183.97;;;13.79;70.07
44441;BME280;30146;52.268;20.944;2022-09-20T09:32:25;100188.44;;;13.79;70.05
44441;BME280;30146;52.268;20.944;2022-09-20T09:34:56;100189.44;;;13.80;69.96
44441;BME280;30146;52.268;20.944;2022-09-20T09:37:54;100188.05;;;13.81;70.08
44441;BME280;30146;52.268;20.944;2022-09-20T09:40:26;100190.52;;;13.85;70.24
44441;BME280;30146;52.268;20.944;2022-09-20T09:43:00;100192.43;;;13.91;70.31
44441;BME280;30146;52.268;20.944;2022-09-20T09:45:33;100187.99;;;13.97;70.25
44441;BME280;30146;52.268;20.944;2022-09-20T09:48:18;100187.37;;;14.01;70.24
44441;BME280;30146;52.268;20.944;2022-09-20T09:50:51;100188.99;;;14.04;70.18
44441;BME280;30146;52.268;20.944;2022-09-20T09:53:36;100186.69;;;14.07;69.94
44441;BME280;30146;52.268;20.944;2022-09-20T09:56:22;100191.77;;;14.10;70.03
44441;BME280;30146;52.268;20.944;2022-09-20T09:59:16;100191.13;;;14.15;70.03
44441;BME280;30146;52.268;20.944;2022-09-20T10:01:58;100191.98;;;14.22;70.12
44441;BME280;30146;52.268;20.944;2022-09-20T10:04:36;100194.16;;;14.30;70.03
44441;BME280;30146;52.268;20.944;2022-09-20T10:07:16;100193.42;;;14.38;70.02
44441;BME280;30146;52.268;20.944;2022-09-20T10:10:02;100194.02;;;14.48;69.84
44441;BME280;30146;52.268;20.944;2022-09-20T10:12:47;100196.73;;;14.63;69.95
44441;BME280;30146;52.268;20.944;2022-09-20T10:15:29;100197.98;;;14.79;69.90
44441;BME280;30146;52.268;20.944;2022-09-20T10:18:17;100194.04;;;14.96;69.76
44441;BME280;30146;52.268;20.944;2022-09-20T10:21:03;100196.34;;;15.16;69.53
44441;BME280;30146;52.268;20.944;2022-09-20T10:23:51;100194.11;;;15.39;69.58
44441;BME280;30146;52.268;20.944;2022-09-20T10:29:45;100188.39;;;15.93;69.51
44441;BME280;30146;52.268;20.944;2022-09-20T10:32:38;100189.20;;;16.15;68.92
44441;BME280;30146;52.268;20.944;2022-09-20T10:35:25;100189.43;;;16.37;68.69
44441;BME280;30146;52.268;20.944;2022-09-20T10:38:13;100186.66;;;16.57;68.26
44441;BME280;30146;52.268;20.944;2022-09-20T10:40:56;100181.75;;;16.73;67.72
44441;BME280;30146;52.268;20.944;2022-09-20T10:43:57;100188.39;;;16.90;67.53
44441;BME280;30146;52.268;20.944;2022-09-20T10:46:43;100184.05;;;17.00;66.69
44441;BME280;30146;52.268;20.944;2022-09-20T10:49:25;100183.94;;;17.07;66.37
44441;BME280;30146;52.268;20.944;2022-09-20T10:52:11;100185.23;;;17.14;66.19
44441;BME280;30146;52.268;20.944;2022-09-20T10:54:59;100189.80;;;17.21;65.93
44441;BME280;30146;52.268;20.944;2022-09-20T10:57:53;100185.61;;;17.26;65.74
44441;BME280;30146;52.268;20.944;2022-09-20T11:00:39;100188.98;;;17.41;65.79
44441;BME280;30146;52.268;20.944;2022-09-20T11:03:23;100188.04;;;17.56;65.73
44441;BME280;30146;52.268;20.944;2022-09-20T11:06:06;100187.05;;;17.72;65.63
44441;BME280;30146;52.268;20.944;2022-09-20T11:08:43;100179.42;;;17.89;65.15
44441;BME280;30146;52.268;20.944;2022-09-20T11:11:21;100179.81;;;18.04;64.69
44441;BME280;30146;52.268;20.944;2022-09-20T11:13:58;100176.59;;;18.16;64.44
44441;BME280;30146;52.268;20.944;2022-09-20T11:16:37;100182.52;;;18.22;63.80
44441;BME280;30146;52.268;20.944;2022-09-20T11:19:18;100178.23;;;18.29;63.55
44441;BME280;30146;52.268;20.944;2022-09-20T11:22:01;100181.14;;;18.38;63.63
44441;BME280;30146;52.268;20.944;2022-09-20T11:24:40;100186.23;;;18.48;63.56
44441;BME280;30146;52.268;20.944;2022-09-20T11:27:15;100185.39;;;18.59;63.44
44441;BME280;30146;52.268;20.944;2022-09-20T11:29:52;100188.63;;;18.68;63.26
44441;BME280;30146;52.268;20.944;2022-09-20T11:32:28;100191.58;;;18.75;62.81
44441;BME280;30146;52.268;20.944;2022-09-20T11:35:05;100192.76;;;18.85;62.54
44441;BME280;30146;52.268;20.944;2022-09-20T11:37:35;100190.44;;;18.93;62.45
44441;BME280;30146;52.268;20.944;2022-09-20T11:40:13;100185.48;;;19.03;62.30
44441;BME280;30146;52.268;20.944;2022-09-20T11:42:46;100190.98;;;19.12;62.05
44441;BME280;30146;52.268;20.944;2022-09-20T11:45:18;100189.97;;;19.18;61.69
44441;BME280;30146;52.268;20.944;2022-09-20T11:47:57;100190.61;;;19.19;61.13
44441;BME280;30146;52.268;20.944;2022-09-20T11:50:49;100186.14;;;19.15;60.67
44441;BME280;30146;52.268;20.944;2022-09-20T11:53:38;100188.73;;;19.08;60.69
44441;BME280;30146;52.268;20.944;2022-09-20T11:56:17;100190.27;;;19.00;60.50
44441;BME280;30146;52.268;20.944;2022-09-20T11:58:50;100188.94;;;18.92;60.33
44441;BME280;30146;52.268;20.944;2022-09-20T12:01:27;100189.38;;;18.82;60.17
44441;BME280;30146;52.268;20.944;2022-09-20T12:04:03;100191.56;;;18.72;59.82
44441;BME280;30146;52.268;20.944;2022-09-20T12:06:58;100187.66;;;18.59;59.66
44441;BME280;30146;52.268;20.944;2022-09-20T12:09:39;100186.85;;;18.50;59.80
44441;BME280;30146;52.268;20.944;2022-09-20T12:12:29;100187.00;;;18.42;59.77
44441;BME280;30146;52.268;20.944;2022-09-20T12:15:03;100183.87;;;18.35;59.65
44441;BME280;30146;52.268;20.944;2022-09-20T12:18:10;100185.30;;;18.30;59.65
44441;BME280;30146;52.268;20.944;2022-09-20T12:21:07;100181.14;;;18.26;59.62
44441;BME280;30146;52.268;20.944;2022-09-20T12:24:01;100181.01;;;18.25;59.39
44441;BME280;30146;52.268;20.944;2022-09-20T12:26:39;100177.79;;;18.23;59.31
44441;BME280;30146;52.268;20.944;2022-09-20T12:32:47;100177.23;;;18.28;59.22
44441;BME280;30146;52.268;20.944;2022-09-20T12:38:38;100168.80;;;18.42;58.81
44441;BME280;30146;52.268;20.944;2022-09-20T12:41:17;100165.23;;;18.49;58.58
44441;BME280;30146;52.268;20.944;2022-09-20T12:44:19;100166.50;;;18.52;58.45
44441;BME280;30146;52.268;20.944;2022-09-20T12:46:55;100166.55;;;18.55;58.24
44441;BME280;30146;52.268;20.944;2022-09-20T12:49:45;100168.30;;;18.58;58.09
44441;BME280;30146;52.268;20.944;2022-09-20T12:52:52;100165.77;;;18.63;58.08
44441;BME280;30146;52.268;20.944;2022-09-20T12:55:33;100168.17;;;18.69;57.95
44441;BME280;30146;52.268;20.944;2022-09-20T12:58:19;100168.55;;;18.71;57.95
44441;BME280;30146;52.268;20.944;2022-09-20T13:01:28;100171.59;;;18.73;57.57
44441;BME280;30146;52.268;20.944;2022-09-20T13:07:37;100170.89;;;18.62;56.99
44441;BME280;30146;52.268;20.944;2022-09-20T13:10:36;100173.77;;;18.52;56.80
44441;BME280;30146;52.268;20.944;2022-09-20T13:13:29;100176.92;;;18.40;56.78
44441;BME280;30146;52.268;20.944;2022-09-20T13:16:03;100188.98;;;18.25;56.60
44441;BME280;30146;52.268;20.944;2022-09-20T13:18:36;100186.95;;;18.08;56.90
44441;BME280;30146;52.268;20.944;2022-09-20T13:21:10;100188.88;;;17.91;57.18
44441;BME280;30146;52.268;20.944;2022-09-20T13:23:48;100192.43;;;17.71;57.44
44441;BME280;30146;52.268;20.944;2022-09-20T13:26:24;100197.08;;;17.51;57.81
44441;BME280;30146;52.268;20.944;2022-09-20T13:28:57;100201.95;;;17.32;58.19
44441;BME280;30146;52.268;20.944;2022-09-20T13:31:33;100209.59;;;17.14;58.50
44441;BME280;30146;52.268;20.944;2022-09-20T13:34:18;100214.64;;;16.94;58.58
44441;BME280;30146;52.268;20.944;2022-09-20T13:36:52;100220.91;;;16.69;58.60
44441;BME280;30146;52.268;20.944;2022-09-20T13:39:28;100227.63;;;16.45;58.89
44441;BME280;30146;52.268;20.944;2022-09-20T13:42:03;100227.88;;;16.23;59.10
44441;BME280;30146;52.268;20.944;2022-09-20T13:44:35;100231.48;;;16.03;59.53
44441;BME280;30146;52.268;20.944;2022-09-20T13:47:26;100226.61;;;15.85;59.73
44441;BME280;30146;52.268;20.944;2022-09-20T13:50:15;100225.11;;;15.66;60.18
44441;BME280;30146;52.268;20.944;2022-09-20T13:52:48;100218.57;;;15.49;60.51
44441;BME280;30146;52.268;20.944;2022-09-20T13:55:28;100211.92;;;15.36;60.77
44441;BME280;30146;52.268;20.944;2022-09-20T13:58:03;100209.15;;;15.26;61.22
44441;BME280;30146;52.268;20.944;2022-09-20T14:00:38;100205.48;;;15.16;61.50
44441;BME280;30146;52.268;20.944;2022-09-20T14:03:17;100202.43;;;15.09;61.98
44441;BME280;30146;52.268;20.944;2022-09-20T14:05:55;100203.64;;;15.03;62.28
44441;BME280;30146;52.268;20.944;2022-09-20T14:08:33;100201.73;;;14.97;62.46
44441;BME280;30146;52.268;20.944;2022-09-20T14:11:11;100202.40;;;14.93;62.76
44441;BME280;30146;52.268;20.944;2022-09-20T14:13:45;100202.31;;;14.90;63.16
44441;BME280;30146;52.268;20.944;2022-09-20T14:16:18;100203.05;;;14.88;63.39
44441;BME280;30146;52.268;20.944;2022-09-20T14:18:51;100198.78;;;14.87;63.68
44441;BME280;30146;52.268;20.944;2022-09-20T14:21:25;100198.80;;;14.87;64.03
44441;BME280;30146;52.268;20.944;2022-09-20T14:23:58;100197.64;;;14.85;64.16
44441;BME280;30146;52.268;20.944;2022-09-20T14:26:32;100200.02;;;14.86;64.39
44441;BME280;30146;52.268;20.944;2022-09-20T14:29:28;100199.81;;;14.87;64.43
44441;BME280;30146;52.268;20.944;2022-09-20T14:32:07;100199.75;;;14.89;64.60
44441;BME280;30146;52.268;20.944;2022-09-20T14:34:41;100195.79;;;14.89;64.39
44441;BME280;30146;52.268;20.944;2022-09-20T14:37:15;100200.27;;;14.89;64.67
44441;BME280;30146;52.268;20.944;2022-09-20T14:39:50;100201.47;;;14.90;64.70
44441;BME280;30146;52.268;20.944;2022-09-20T14:42:21;100202.15;;;14.90;64.80